createdAt,value
2019-05-16T00:01:39.597Z,55908.23
2019-05-16T00:04:09.515Z,55916.45
2019-05-16T00:06:39.471Z,55920.56
2019-05-16T00:09:09.376Z,55913.36
2019-05-16T00:11:39.396Z,55951.41
2019-05-16T00:14:09.784Z,55888.69
2019-05-16T00:16:39.633Z,55905.14
2019-05-16T00:19:09.608Z,55923.65
2019-05-16T00:21:40.085Z,55908.23
2019-05-16T00:24:10.310Z,55909.25
2019-05-16T00:26:40.480Z,55901.03
2019-05-16T00:29:10.332Z,55917.48
2019-05-16T00:31:40.217Z,55906.17
2019-05-16T00:34:10.436Z,55888.69
2019-05-16T00:36:40.631Z,55874.29
2019-05-16T00:39:10.576Z,55870.18
2019-05-16T00:41:40.451Z,55877.38
2019-05-16T00:44:10.373Z,55910.28
2019-05-16T00:46:40.810Z,55885.61
2019-05-16T00:49:10.704Z,55886.63
2019-05-16T00:51:40.682Z,55873.27
2019-05-16T00:54:10.558Z,55874.29
2019-05-16T00:56:41.178Z,55869.15
2019-05-16T00:59:11.391Z,55886.63
2019-05-16T01:01:41.758Z,55892.80
2019-05-16T01:04:11.634Z,55848.59
2019-05-16T01:06:41.618Z,55892.80
2019-05-16T01:09:11.847Z,55923.65
2019-05-16T01:11:41.711Z,55894.86
2019-05-16T01:14:11.567Z,55888.69
2019-05-16T01:16:42.032Z,55894.86
2019-05-16T01:19:12.121Z,55892.80
2019-05-16T01:21:42.012Z,55913.36
2019-05-16T01:24:11.880Z,55874.29
2019-05-16T01:26:42.088Z,55879.43
2019-05-16T01:29:12.084Z,55896.91
2019-05-16T01:31:42.226Z,55903.08
2019-05-16T01:34:12.133Z,55882.52
2019-05-16T01:36:42.526Z,55896.91
2019-05-16T01:39:12.678Z,55876.35
2019-05-16T01:41:42.543Z,55881.49
2019-05-16T01:44:12.435Z,55872.24
2019-05-16T01:46:42.353Z,55868.12
2019-05-16T01:49:12.233Z,55893.83
2019-05-16T01:51:42.382Z,55865.04
2019-05-16T01:54:12.257Z,55885.61
2019-05-16T01:56:42.128Z,55878.41
2019-05-16T01:59:12.469Z,55890.75
2019-05-16T02:01:42.452Z,55880.46
2019-05-16T02:04:12.475Z,55865.04
2019-05-16T02:06:51.783Z,55907.20
2019-05-16T02:09:14.171Z,55873.27
2019-05-16T02:11:44.357Z,55828.02
2019-05-16T02:14:15.013Z,55866.07
2019-05-16T02:16:44.924Z,55853.73
2019-05-16T02:19:14.824Z,55877.38
2019-05-16T02:21:44.696Z,55888.69
2019-05-16T02:24:14.551Z,55855.79
2019-05-16T02:26:44.394Z,55889.72
2019-05-16T02:29:14.364Z,55854.76
2019-05-16T02:31:44.288Z,55868.12
2019-05-16T02:34:14.191Z,55895.89
2019-05-16T02:36:44.081Z,55906.17
2019-05-16T02:39:13.955Z,55854.76
2019-05-16T02:41:46.185Z,55918.50
2019-05-16T02:44:15.606Z,55897.94
2019-05-16T02:46:45.845Z,55883.55
2019-05-16T02:49:15.669Z,55907.20
2019-05-16T02:51:46.595Z,55873.27
2019-05-16T02:54:16.451Z,55868.12
2019-05-16T02:56:46.614Z,55870.18
2019-05-16T02:59:16.502Z,55878.41
2019-05-16T03:01:51.955Z,55856.81
2019-05-16T03:04:21.289Z,55912.34
2019-05-16T03:06:52.488Z,55896.91
2019-05-16T03:09:23.086Z,55873.27
2019-05-16T03:11:53.175Z,55858.87
2019-05-16T03:14:24.414Z,55878.41
2019-05-16T03:17:00.868Z,55895.89
2019-05-16T03:19:31.364Z,55880.46
2019-05-16T03:22:02.869Z,55851.68
2019-05-16T03:24:33.558Z,55860.93
2019-05-16T03:27:03.786Z,55877.38
2019-05-16T03:29:33.813Z,55875.32
2019-05-16T03:32:03.980Z,55874.29
2019-05-16T03:34:35.025Z,55846.53
2019-05-16T03:37:05.374Z,55900.00
2019-05-16T03:39:35.777Z,55855.79
2019-05-16T03:42:05.688Z,55872.24
2019-05-16T03:44:35.611Z,55859.90
2019-05-16T03:47:05.462Z,55873.27
2019-05-16T03:49:35.338Z,55859.90
2019-05-16T03:52:05.652Z,55851.68
2019-05-16T03:54:35.578Z,55861.95
2019-05-16T03:57:05.788Z,55882.52
2019-05-16T03:59:35.679Z,55843.45
2019-05-16T04:02:06.312Z,55886.63
2019-05-16T04:04:37.450Z,55872.24
2019-05-16T04:07:10.795Z,55828.02
2019-05-16T04:09:41.142Z,55849.62
2019-05-16T04:12:11.671Z,55865.04
2019-05-16T04:14:41.685Z,55880.46
2019-05-16T04:17:11.864Z,55878.41
2019-05-16T04:19:42.076Z,55852.70
2019-05-16T04:22:16.699Z,55857.84
2019-05-16T04:24:46.538Z,55861.95
2019-05-16T04:27:16.745Z,55878.41
2019-05-16T04:29:46.615Z,55864.01
2019-05-16T04:32:16.446Z,55830.08
2019-05-16T04:34:46.668Z,55851.68
2019-05-16T04:37:16.511Z,55841.39
2019-05-16T04:39:46.405Z,55886.63
2019-05-16T04:42:16.248Z,55860.93
2019-05-16T04:44:46.111Z,55879.43
2019-05-16T04:47:15.985Z,55864.01
2019-05-16T04:49:46.286Z,55845.50
2019-05-16T04:52:16.116Z,55854.76
2019-05-16T04:54:46.270Z,55839.34
2019-05-16T04:57:16.122Z,55843.45
2019-05-16T04:59:45.999Z,55845.50
2019-05-16T05:02:15.832Z,55827.00
2019-05-16T05:04:46.030Z,55880.46
2019-05-16T05:07:15.932Z,55839.34
2019-05-16T05:09:46.093Z,55881.49
2019-05-16T05:12:15.928Z,55851.68
2019-05-16T05:14:46.120Z,55864.01
2019-05-16T05:17:16.047Z,55861.95
2019-05-16T05:19:45.952Z,55816.71
2019-05-16T05:22:15.883Z,55840.36
2019-05-16T05:24:45.788Z,55851.68
2019-05-16T05:27:15.741Z,55855.79
2019-05-16T05:29:45.617Z,55849.62
2019-05-16T05:32:15.798Z,55867.10
2019-05-16T05:34:45.966Z,55845.50
2019-05-16T05:37:16.069Z,55837.28
2019-05-16T05:39:45.986Z,55821.86
2019-05-16T05:42:15.806Z,55868.12
2019-05-16T05:44:45.989Z,55840.36
2019-05-16T05:47:16.106Z,55814.66
2019-05-16T05:49:45.991Z,55852.70
2019-05-16T05:52:15.793Z,55829.05
2019-05-16T05:54:45.671Z,55831.11
2019-05-16T05:57:15.827Z,55841.39
2019-05-16T05:59:46.366Z,55861.95
2019-05-16T06:02:16.206Z,55812.60
2019-05-16T06:04:46.388Z,55847.56
2019-05-16T06:07:16.370Z,55821.86
2019-05-16T06:09:53.626Z,55818.77
2019-05-16T06:12:37.458Z,55848.59
2019-05-16T06:15:11.831Z,55834.20
2019-05-16T06:17:40.148Z,55816.71
2019-05-16T06:20:14.552Z,55869.15
2019-05-16T06:22:42.611Z,55845.50
2019-05-16T06:25:14.000Z,55809.52
2019-05-16T06:27:45.308Z,55830.08
2019-05-16T06:30:15.515Z,55859.90
2019-05-16T06:32:46.372Z,55874.29
2019-05-16T06:35:16.692Z,55818.77
2019-05-16T06:37:49.772Z,55844.48
2019-05-16T06:40:20.348Z,55831.11
2019-05-16T06:42:51.147Z,55861.95
2019-05-16T06:45:21.113Z,55827.00
2019-05-16T06:47:50.947Z,55861.95
2019-05-16T06:50:21.275Z,55820.83
2019-05-16T06:52:51.363Z,55833.17
2019-05-16T06:55:21.214Z,55850.64
2019-05-16T06:57:51.424Z,55882.52
2019-05-16T07:00:23.744Z,55866.07
2019-05-16T07:02:53.665Z,55835.22
2019-05-16T07:05:23.812Z,55828.02
2019-05-16T07:07:53.969Z,55832.14
2019-05-16T07:10:23.960Z,55840.36
2019-05-16T07:12:54.373Z,55858.87
2019-05-16T07:15:24.262Z,55831.11
2019-05-16T07:17:54.147Z,55842.42
2019-05-16T07:20:24.123Z,55839.34
2019-05-16T07:22:53.975Z,55811.57
2019-05-16T07:25:23.935Z,55827.00
2019-05-16T07:27:53.804Z,55828.02
2019-05-16T07:30:24.399Z,55865.04
2019-05-16T07:32:54.602Z,55812.60
2019-05-16T07:35:24.569Z,55833.17
2019-05-16T07:37:54.450Z,55845.50
2019-05-16T07:40:27.039Z,55840.36
2019-05-16T07:42:56.064Z,55864.01
2019-05-16T07:45:25.933Z,55814.66
2019-05-16T07:47:55.856Z,55858.87
2019-05-16T07:50:26.413Z,55846.53
2019-05-16T07:52:56.325Z,55868.12
2019-05-16T07:55:26.199Z,55846.53
2019-05-16T07:57:56.034Z,55837.28
2019-05-16T08:00:43.393Z,55885.61
2019-05-16T08:03:00.027Z,55881.49
2019-05-16T08:05:33.381Z,55841.39
2019-05-16T08:08:02.125Z,55869.15
2019-05-16T08:10:40.588Z,55846.53
2019-05-16T08:13:03.716Z,55857.84
2019-05-16T08:15:33.553Z,55829.05
2019-05-16T08:18:03.497Z,55881.49
2019-05-16T08:20:33.446Z,55904.11
2019-05-16T08:23:03.388Z,55878.41
2019-05-16T08:25:33.503Z,55857.84
2019-05-16T08:28:04.042Z,55860.93
2019-05-16T08:30:34.021Z,55845.50
2019-05-16T08:33:03.972Z,55868.12
2019-05-16T08:35:33.821Z,55864.01
2019-05-16T08:38:03.680Z,55822.88
2019-05-16T08:40:59.719Z,55851.68
2019-05-16T08:43:05.577Z,55830.08
2019-05-16T08:45:36.432Z,55880.46
2019-05-16T08:48:07.470Z,55884.57
2019-05-16T08:50:41.133Z,55868.12
2019-05-16T08:53:12.913Z,55817.75
2019-05-16T08:55:43.350Z,55871.21
2019-05-16T08:58:13.547Z,55868.12
2019-05-16T09:00:43.735Z,55885.61
2019-05-16T09:03:13.637Z,55900.00
2019-05-16T09:05:43.902Z,55866.07
2019-05-16T09:08:13.878Z,55859.90
2019-05-16T09:10:55.618Z,55865.04
2019-05-16T09:13:17.564Z,55866.07
2019-05-16T09:15:48.128Z,55885.61
2019-05-16T09:18:18.552Z,55886.63
2019-05-16T09:20:50.358Z,55874.29
2019-05-16T09:23:20.110Z,55866.07
2019-05-16T09:25:49.993Z,55870.18
2019-05-16T09:28:19.952Z,55853.73
2019-05-16T09:30:49.942Z,55870.18
2019-05-16T09:33:20.133Z,55888.69
2019-05-16T09:35:50.097Z,55890.75
2019-05-16T09:38:25.157Z,55861.95
2019-05-16T09:40:51.931Z,55876.35
2019-05-16T09:43:21.870Z,55888.69
2019-05-16T09:45:57.336Z,55858.87
2019-05-16T09:48:23.747Z,55866.07
2019-05-16T09:50:54.217Z,55882.52
2019-05-16T09:53:24.395Z,55876.35
2019-05-16T09:55:54.745Z,55878.41
2019-05-16T09:58:24.686Z,55867.10
2019-05-16T10:00:57.540Z,55865.04
2019-05-16T10:03:27.202Z,55849.62
2019-05-16T10:05:57.564Z,55840.36
2019-05-16T10:08:27.425Z,55839.34
2019-05-16T10:10:57.918Z,55874.29
2019-05-16T10:13:28.147Z,55881.49
2019-05-16T10:15:58.283Z,55886.63
2019-05-16T10:18:28.503Z,55888.69
2019-05-16T10:20:59.306Z,55871.21
2019-05-16T10:23:29.618Z,55900.00
2019-05-16T10:25:59.800Z,55868.12
2019-05-16T10:28:30.265Z,55870.18
2019-05-16T10:31:00.613Z,55879.43
2019-05-16T10:33:30.501Z,55892.80
2019-05-16T10:36:00.668Z,55892.80
2019-05-16T10:38:30.708Z,55878.41
2019-05-16T10:41:00.711Z,55876.35
2019-05-16T10:43:30.640Z,55887.66
2019-05-16T10:46:01.095Z,55853.73
2019-05-16T10:48:31.016Z,55868.12
2019-05-16T10:51:00.875Z,55846.53
2019-05-16T10:53:58.162Z,55898.97
2019-05-16T10:56:03.025Z,55871.21
2019-05-16T10:58:37.243Z,55894.86
2019-05-16T11:01:19.527Z,55878.41
2019-05-16T11:03:36.216Z,55888.69
2019-05-16T11:06:13.193Z,55933.93
2019-05-16T11:08:39.643Z,55893.83
2019-05-16T11:11:09.672Z,55874.29
2019-05-16T11:13:39.605Z,55900.00
2019-05-16T11:16:09.694Z,55879.43
2019-05-16T11:18:39.669Z,55890.75
2019-05-16T11:21:09.840Z,55891.77
2019-05-16T11:23:40.067Z,55903.08
2019-05-16T11:26:09.931Z,55905.14
2019-05-16T11:28:39.818Z,55894.86
2019-05-16T11:31:09.693Z,55880.46
2019-05-16T11:33:39.565Z,55865.04
2019-05-16T11:36:12.687Z,55876.35
2019-05-16T11:38:41.051Z,55896.91
2019-05-16T11:41:10.941Z,55857.84
2019-05-16T11:43:40.782Z,55888.69
2019-05-16T11:46:11.059Z,55872.24
2019-05-16T11:48:40.971Z,55882.52
2019-05-16T11:51:10.801Z,55898.97
2019-05-16T11:53:41.000Z,55894.86
2019-05-16T11:56:10.958Z,55884.57
2019-05-16T11:58:40.931Z,55883.55
2019-05-16T12:01:10.871Z,55894.86
2019-05-16T12:03:41.363Z,55903.08
2019-05-16T12:06:11.503Z,55885.61
2019-05-16T12:08:41.331Z,55895.89
2019-05-16T12:11:11.479Z,55890.75
2019-05-16T12:13:41.615Z,55917.48
2019-05-16T12:16:14.805Z,55881.49
2019-05-16T12:18:43.552Z,55892.80
2019-05-16T12:21:13.864Z,55894.86
2019-05-16T12:23:43.730Z,55911.31
2019-05-16T12:26:13.604Z,55903.08
2019-05-16T12:28:43.500Z,55864.01
2019-05-16T12:31:13.372Z,55900.00
2019-05-16T12:33:43.357Z,55908.23
2019-05-16T12:36:13.360Z,55877.38
2019-05-16T12:38:43.209Z,55937.01
2019-05-16T12:41:13.184Z,55922.62
2019-05-16T12:43:50.530Z,55890.75
2019-05-16T12:46:15.246Z,55897.94
2019-05-16T12:48:47.244Z,55918.50
2019-05-16T12:51:17.399Z,55907.20
2019-05-16T12:53:47.902Z,55910.28
2019-05-16T12:56:18.282Z,55897.94
2019-05-16T12:58:50.741Z,55876.35
2019-05-16T13:01:20.756Z,55895.89
2019-05-16T13:03:51.255Z,55893.83
2019-05-16T13:06:21.127Z,55877.38
2019-05-16T13:08:53.583Z,55915.42
2019-05-16T13:11:23.295Z,55876.35
2019-05-16T13:14:05.527Z,55914.39
2019-05-16T13:16:25.245Z,55911.31
2019-05-16T13:18:56.680Z,55900.00
2019-05-16T13:21:27.601Z,55884.57
2019-05-16T13:23:57.725Z,55898.97
2019-05-16T13:26:27.541Z,55925.70
2019-05-16T13:28:57.956Z,55930.84
2019-05-16T13:31:28.620Z,55903.08
2019-05-16T13:33:59.165Z,55870.18
2019-05-16T13:36:29.440Z,55909.25
2019-05-16T13:38:59.554Z,55894.86
2019-05-16T13:41:29.427Z,55912.34
2019-05-16T13:44:12.924Z,55927.76
2019-05-16T13:46:31.200Z,55894.86
2019-05-16T13:49:01.068Z,55878.41
2019-05-16T13:51:30.977Z,55897.94
2019-05-16T13:54:00.855Z,55887.66
2019-05-16T13:56:30.983Z,55906.17
2019-05-16T13:59:00.942Z,55895.89
2019-05-16T14:01:30.821Z,55921.59
2019-05-16T14:04:00.943Z,55946.27
2019-05-16T14:06:31.014Z,55933.93
2019-05-16T14:09:00.910Z,55907.20
2019-05-16T14:11:31.391Z,55913.36
2019-05-16T14:14:04.578Z,55919.54
2019-05-16T14:16:33.133Z,55922.62
2019-05-16T14:19:03.139Z,55909.25
2019-05-16T14:21:34.017Z,55923.65
2019-05-16T14:24:04.171Z,55921.59
2019-05-16T14:26:34.033Z,55940.10
2019-05-16T14:29:04.006Z,55925.70
2019-05-16T14:31:34.023Z,55945.24
2019-05-16T14:34:06.170Z,55904.11
2019-05-16T14:36:37.691Z,55955.52
2019-05-16T14:39:08.237Z,55961.69
2019-05-16T14:41:38.151Z,55941.13
2019-05-16T14:44:08.177Z,55922.62
2019-05-16T14:46:38.560Z,55935.98
2019-05-16T14:49:08.516Z,55905.14
2019-05-16T14:51:38.877Z,55946.27
2019-05-16T14:54:09.037Z,55948.32
2019-05-16T14:56:39.281Z,55922.62
2019-05-16T14:59:09.502Z,55943.18
2019-05-16T15:01:39.375Z,55919.54
2019-05-16T15:04:09.649Z,55917.48
2019-05-16T15:06:39.570Z,55938.04
2019-05-16T15:09:09.697Z,55908.23
2019-05-16T15:11:39.968Z,55927.76
2019-05-16T15:14:09.848Z,55959.63
2019-05-16T15:16:40.070Z,55935.98
2019-05-16T15:19:10.535Z,55911.31
2019-05-16T15:21:41.074Z,55919.54
2019-05-16T15:24:11.020Z,55925.70
2019-05-16T15:26:41.262Z,55911.31
2019-05-16T15:29:11.213Z,55938.04
2019-05-16T15:31:42.786Z,55927.76
2019-05-16T15:34:13.036Z,55953.46
2019-05-16T15:36:42.901Z,55921.59
2019-05-16T15:39:13.134Z,55974.03
2019-05-16T15:41:43.065Z,55952.44
2019-05-16T15:44:13.298Z,55942.16
2019-05-16T15:46:43.296Z,55933.93
2019-05-16T15:49:13.207Z,55942.16
2019-05-16T15:51:44.246Z,55929.82
2019-05-16T15:54:21.310Z,55950.38
2019-05-16T15:56:52.284Z,55911.31
2019-05-16T15:59:22.186Z,55954.49
2019-05-16T16:01:53.874Z,55946.27
2019-05-16T16:04:24.052Z,55926.73
2019-05-16T16:06:54.006Z,55931.87
2019-05-16T16:09:26.840Z,55956.55
2019-05-16T16:11:56.609Z,55976.09
2019-05-16T16:14:27.456Z,55930.84
2019-05-16T16:16:57.570Z,55938.04
2019-05-16T16:19:27.458Z,55948.32
2019-05-16T16:21:57.973Z,55946.27
2019-05-16T16:24:28.323Z,55935.98
2019-05-16T16:26:58.435Z,55921.59
2019-05-16T16:29:28.691Z,55929.82
2019-05-16T16:31:58.522Z,55946.27
2019-05-16T16:34:28.474Z,55925.70
2019-05-16T16:36:58.389Z,55933.93
2019-05-16T16:39:28.334Z,55951.41
2019-05-16T16:41:58.252Z,55927.76
2019-05-16T16:44:28.298Z,55927.76
2019-05-16T16:46:58.469Z,55955.52
2019-05-16T16:49:29.030Z,55937.01
2019-05-16T16:51:59.531Z,55989.45
2019-05-16T16:54:29.445Z,55961.69
2019-05-16T16:56:59.695Z,55963.75
2019-05-16T16:59:29.599Z,55975.06
2019-05-16T17:01:59.832Z,55925.70
2019-05-16T17:04:30.098Z,55945.24
2019-05-16T17:07:00.367Z,55960.66
2019-05-16T17:09:30.860Z,55960.66
2019-05-16T17:12:01.207Z,55991.51
2019-05-16T17:14:31.436Z,55940.10
2019-05-16T17:17:01.677Z,55933.93
2019-05-16T17:19:31.670Z,55965.80
2019-05-16T17:22:13.638Z,55948.32
2019-05-16T17:24:33.721Z,55960.66
2019-05-16T17:27:03.642Z,55940.10
2019-05-16T17:29:33.577Z,55953.46
2019-05-16T17:32:06.620Z,55965.80
2019-05-16T17:34:37.292Z,55942.16
2019-05-16T17:37:09.483Z,55952.44
2019-05-16T17:39:38.815Z,55928.79
2019-05-16T17:42:08.729Z,55940.10
2019-05-16T17:44:38.884Z,55973.00
2019-05-16T17:47:08.822Z,55941.13
2019-05-16T17:49:39.010Z,55934.96
2019-05-16T17:52:08.937Z,55965.80
2019-05-16T17:54:38.831Z,55975.06
2019-05-16T17:57:08.754Z,55946.27
2019-05-16T17:59:38.634Z,55942.16
2019-05-16T18:02:08.516Z,55949.35
2019-05-16T18:04:41.107Z,55964.78
2019-05-16T18:07:10.051Z,55948.32
2019-05-16T18:09:42.901Z,55960.66
2019-05-16T18:12:11.840Z,55941.13
2019-05-16T18:14:42.176Z,55947.30
2019-05-16T18:17:12.418Z,55987.40
2019-05-16T18:19:42.374Z,55968.89
2019-05-16T18:22:12.695Z,55968.89
2019-05-16T18:24:42.650Z,55924.68
2019-05-16T18:27:12.573Z,55975.06
2019-05-16T18:29:43.207Z,55942.16
2019-05-16T18:32:13.107Z,55942.16
2019-05-16T18:34:42.982Z,56000.76
2019-05-16T18:37:12.842Z,55965.80
2019-05-16T18:39:43.049Z,55946.27
2019-05-16T18:42:13.177Z,55949.35
2019-05-16T18:44:43.058Z,55973.00
2019-05-16T18:47:12.987Z,55967.86
2019-05-16T18:49:43.570Z,55986.37
2019-05-16T18:52:14.021Z,55982.25
2019-05-16T18:54:46.515Z,55987.40
2019-05-16T18:57:17.565Z,55966.83
2019-05-16T18:59:47.084Z,55967.86
2019-05-16T19:02:17.962Z,55921.59
2019-05-16T19:04:50.074Z,55938.04
2019-05-16T19:07:19.791Z,55993.57
2019-05-16T19:09:49.732Z,55977.11
2019-05-16T19:12:19.648Z,55963.75
2019-05-16T19:14:49.524Z,55961.69
2019-05-16T19:17:24.135Z,55960.66
2019-05-16T19:19:51.035Z,55942.16
2019-05-16T19:22:20.924Z,55966.83
2019-05-16T19:24:50.878Z,55945.24
2019-05-16T19:27:20.797Z,55974.03
2019-05-16T19:29:51.787Z,55974.03
2019-05-16T19:32:22.227Z,55929.82
2019-05-16T19:34:52.443Z,55958.61
2019-05-16T19:37:22.895Z,55975.06
2019-05-16T19:39:52.757Z,55964.78
2019-05-16T19:42:22.926Z,55956.55
2019-05-16T19:44:52.855Z,55983.28
2019-05-16T19:47:34.153Z,55974.03
2019-05-16T19:49:56.882Z,55954.49
2019-05-16T19:52:26.945Z,55986.37
2019-05-16T19:54:56.981Z,55947.30
2019-05-16T19:57:27.228Z,55951.41
2019-05-16T19:59:57.224Z,55964.78
2019-05-16T20:02:27.412Z,55964.78
2019-05-16T20:04:57.505Z,55953.46
2019-05-16T20:07:27.730Z,55941.13
2019-05-16T20:09:57.657Z,55955.52
2019-05-16T20:12:27.769Z,55990.48
2019-05-16T20:15:07.580Z,55954.49
2019-05-16T20:17:29.608Z,55947.30
2019-05-16T20:20:00.150Z,55984.31
2019-05-16T20:22:30.003Z,55993.57
2019-05-16T20:24:59.965Z,55994.59
2019-05-16T20:27:30.189Z,55975.06
2019-05-16T20:30:00.166Z,56002.82
2019-05-16T20:32:30.604Z,55942.16
2019-05-16T20:35:01.268Z,55961.69
2019-05-16T20:37:31.492Z,55981.23
2019-05-16T20:40:02.030Z,55984.31
2019-05-16T20:42:32.237Z,55985.34
2019-05-16T20:45:02.179Z,55987.40
2019-05-16T20:47:32.065Z,55969.92
2019-05-16T20:50:01.977Z,55991.51
2019-05-16T20:52:31.871Z,55997.68
2019-05-16T20:55:02.396Z,55973.00
2019-05-16T20:57:32.543Z,55966.83
2019-05-16T21:00:02.411Z,55951.41
2019-05-16T21:02:32.299Z,55965.80
2019-05-16T21:05:02.534Z,55993.57
2019-05-16T21:07:32.695Z,55984.31
2019-05-16T21:10:02.578Z,55959.63
2019-05-16T21:12:33.041Z,55945.24
2019-05-16T21:15:02.939Z,55955.52
2019-05-16T21:17:33.126Z,55956.55
2019-05-16T21:20:03.177Z,55991.51
2019-05-16T21:22:33.323Z,55983.28
2019-05-16T21:25:03.272Z,55954.49
2019-05-16T21:27:33.159Z,56001.79
2019-05-16T21:30:03.329Z,55957.58
2019-05-16T21:32:33.522Z,55979.17
2019-05-16T21:35:03.691Z,55979.17
2019-05-16T21:37:33.865Z,55968.89
2019-05-16T21:40:04.513Z,55985.34
2019-05-16T21:42:36.422Z,55942.16
2019-05-16T21:45:07.646Z,55985.34
2019-05-16T21:47:37.589Z,55991.51
2019-05-16T21:50:08.267Z,55971.97
2019-05-16T21:52:38.357Z,55966.83
2019-05-16T21:55:09.198Z,55965.80
2019-05-16T21:57:39.147Z,55944.21
2019-05-16T22:00:17.440Z,55964.78
2019-05-16T22:02:47.980Z,56003.85
2019-05-16T22:05:18.103Z,55987.40
2019-05-16T22:07:48.515Z,55975.06
2019-05-16T22:10:18.543Z,55977.11
2019-05-16T22:12:49.067Z,55981.23
2019-05-16T22:15:18.940Z,55954.49
2019-05-16T22:17:48.875Z,55985.34
2019-05-16T22:20:19.053Z,55989.45
2019-05-16T22:22:48.933Z,55979.17
2019-05-16T22:25:18.918Z,55987.40
2019-05-16T22:27:49.026Z,55991.51
2019-05-16T22:30:21.290Z,55975.06
2019-05-16T22:32:51.646Z,56003.85
2019-05-16T22:35:21.676Z,55962.72
2019-05-16T22:37:55.544Z,55984.31
2019-05-16T22:40:23.249Z,55975.06
2019-05-16T22:42:53.443Z,55987.40
2019-05-16T22:45:23.464Z,56000.76
2019-05-16T22:47:53.681Z,55997.68
2019-05-16T22:50:24.129Z,56012.07
2019-05-16T22:52:56.820Z,55979.17
2019-05-16T22:55:26.565Z,56005.90
2019-05-16T22:57:56.630Z,56010.02
2019-05-16T23:00:29.814Z,55990.48
2019-05-16T23:03:00.254Z,55987.40
2019-05-16T23:05:30.329Z,56012.07
2019-05-16T23:08:05.715Z,55993.57
2019-05-16T23:10:32.135Z,56014.13
2019-05-16T23:13:02.688Z,55996.65
2019-05-16T23:15:32.686Z,55966.83
2019-05-16T23:18:02.594Z,56000.76
2019-05-16T23:20:32.491Z,55964.78
2019-05-16T23:23:02.389Z,55993.57
2019-05-16T23:25:32.277Z,55958.61
2019-05-16T23:28:02.150Z,55965.80
2019-05-16T23:30:32.054Z,56008.99
2019-05-16T23:33:02.226Z,55956.55
2019-05-16T23:35:32.093Z,55975.06
2019-05-16T23:38:02.008Z,55979.17
2019-05-16T23:40:32.355Z,55983.28
2019-05-16T23:43:02.216Z,55973.00
2019-05-16T23:45:32.108Z,56031.61
2019-05-16T23:48:02.457Z,55976.09
2019-05-16T23:50:32.413Z,55991.51
2019-05-16T23:53:02.312Z,55999.73
2019-05-16T23:55:32.177Z,55974.03
2019-05-16T23:58:02.065Z,55997.68
